Airport View

Enter AWOS ICAO identifier for current METAR.

ex. KFNL

KSDC 170915Z AUTO 00000KT 10SM CLR M05/M11 A3038 RMK AO2

17 Nov 2019 09:22

Frequency: 124.2

Phone: 315-483-6171

Other Area AWOS: KROC - KFZY - K6B9 - KPEO

TAF KROC 170528Z 1706/1806 12005KT P6SM FEW100 FEW250 FM171500 14006KT P6SM FEW250 FM180200 14007KT P6SM SCT250